This is the latest recevied weather packets stored in our database for station/object EA3AGY-13. If no packets are shown the sender has not sent any weather packets the latest 10 day(s).
| Time | Temp. | Humidity | Pressure | Rain* | Wind** | Luminosity | Snow |
|---|---|---|---|---|---|---|---|
| 1777527149 | 9.44° C | 44% | 1015.2 hPa | 0 mm | - | - | - |
| 1777525947 | 9.44° C | 46% | 1015 hPa | 0 mm | - | - | - |
| 1777524137 | 8.33° C | 44% | 1014.9 hPa | 0 mm | - | - | - |
| 1777522932 | 7.78° C | 45% | 1014.8 hPa | 0 mm | - | - | - |
| 1777521125 | 7.22° C | 50% | 1014.7 hPa | 0 mm | - | - | - |
| 1777520523 | 7.78° C | 47% | 1014.9 hPa | 0 mm | - | - | - |
| 1777518716 | 7.78° C | 50% | 1014.8 hPa | 0 mm | - | - | - |
| 1777517511 | 8.33° C | 44% | 1014.8 hPa | 0 mm | - | - | - |
| 1777515704 | 8.33° C | 50% | 1014.9 hPa | 0 mm | - | - | - |
| 1777515101 | 8.33° C | 46% | 1014.8 hPa | 0 mm | - | - | - |
| 1777513294 | 8.33° C | 44% | 1014.8 hPa | 0 mm | - | - | - |
| 1777512692 | 8.33° C | 46% | 1014.9 hPa | 0 mm | - | - | - |
| 1777512089 | 8.89° C | 46% | 1014.9 hPa | 0 mm | - | - | - |
| 1777510885 | 8.33° C | 49% | 1015.1 hPa | 0 mm | - | - | - |
| 1777508475 | 9.44° C | 43% | 1015 hPa | 0 mm | - | - | - |
| 1777502452 | 10.56° C | 41% | 1015 hPa | 0 mm | - | - | - |
| 1777497030 | 9.44° C | 47% | 1015.1 hPa | 0 mm | - | - | - |
| 1777494621 | 9.44° C | 44% | 1014.7 hPa | 0 mm | - | - | - |
| 1777494020 | 10.56° C | 34% | 1014.7 hPa | 0 mm | - | - | - |
| 1777493417 | 10.56° C | 38% | 1014.7 hPa | 0 mm | - | - | - |
| 1777492211 | 10.56° C | 40% | 1014.6 hPa | 0 mm | - | - | - |
| 1777486790 | 14.44° C | 25% | 1013.5 hPa | 0 mm | - | - | - |
| 1777486187 | 14.44° C | 25% | 1013.4 hPa | 0 mm | - | - | - |
| 1777484382 | 15.56° C | 24% | 1013.3 hPa | 0 mm | - | - | - |
| 1777483777 | 15.56° C | 25% | 1013.3 hPa | 0 mm | - | - | - |
* Rain since midnight (hover to see other rain measurements)
** Current wind speed in m/s (hover to see current wind gust speed)